createdAt,value
2022-11-04T00:01:28.786Z,2.75
2022-11-04T00:03:55.445Z,4.43
2022-11-04T00:06:22.174Z,2.92
2022-11-04T00:08:52.579Z,2.00
2022-11-04T00:11:37.495Z,2.42
2022-11-04T00:14:04.292Z,2.80
2022-11-04T00:16:49.391Z,2.38
2022-11-04T00:19:16.198Z,2.58
2022-11-04T00:22:01.303Z,2.35
2022-11-04T00:24:43.033Z,2.78
2022-11-04T00:27:28.756Z,2.05
2022-11-04T00:29:55.264Z,3.15
2022-11-04T00:32:43.785Z,1.75
2022-11-04T00:35:11.056Z,2.70
2022-11-04T00:37:38.117Z,2.80
2022-11-04T00:40:05.203Z,2.67
2022-11-04T00:42:31.945Z,2.58
2022-11-04T00:44:58.433Z,4.25
2022-11-04T00:47:25.109Z,6.80
2022-11-04T00:49:51.744Z,4.55
2022-11-04T00:52:18.386Z,4.90
2022-11-04T00:54:44.852Z,4.25
2022-11-04T00:57:11.669Z,4.22
2022-11-04T00:59:38.230Z,3.08
2022-11-04T01:02:04.875Z,4.13
2022-11-04T01:04:31.524Z,5.50
2022-11-04T01:06:57.983Z,5.68
2022-11-04T01:09:24.715Z,5.72
2022-11-04T01:11:51.225Z,5.10
2022-11-04T01:14:17.686Z,4.93
2022-11-04T01:16:44.178Z,3.67
2022-11-04T01:19:11.453Z,9.73
2022-11-04T01:21:38.242Z,6.47
2022-11-04T01:24:04.901Z,5.65
2022-11-04T01:26:31.750Z,8.35
2022-11-04T01:28:58.575Z,7.18
2022-11-04T01:31:26.610Z,5.88
2022-11-04T01:33:53.592Z,8.88
2022-11-04T01:36:20.410Z,7.53
2022-11-04T01:38:46.987Z,6.25
2022-11-04T01:41:18.565Z,9.52
2022-11-04T01:43:52.350Z,5.10
2022-11-04T01:46:34.305Z,5.85
2022-11-04T01:49:14.682Z,8.02
2022-11-04T01:51:41.844Z,4.47
2022-11-04T01:54:09.009Z,5.80
2022-11-04T01:56:35.872Z,7.13
2022-11-04T01:59:05.998Z,6.47
2022-11-04T02:01:32.857Z,6.68
2022-11-04T02:04:18.718Z,5.97
2022-11-04T02:06:48.730Z,9.15
2022-11-04T02:09:16.947Z,5.30
2022-11-04T02:12:02.195Z,4.35
2022-11-04T02:14:28.787Z,4.97
2022-11-04T02:16:58.729Z,4.35
2022-11-04T02:19:31.215Z,7.55
2022-11-04T02:22:06.895Z,8.25
2022-11-04T02:24:44.062Z,6.93
2022-11-04T02:27:25.877Z,7.43
2022-11-04T02:30:04.512Z,5.80
2022-11-04T02:32:40.505Z,5.30
2022-11-04T02:35:22.334Z,6.10
2022-11-04T02:38:04.722Z,9.38
2022-11-04T02:40:31.199Z,4.53
2022-11-04T02:43:00.545Z,9.77
2022-11-04T02:45:32.985Z,5.95
2022-11-04T02:48:18.940Z,6.28
2022-11-04T02:50:56.421Z,5.28
2022-11-04T02:53:36.954Z,4.78
2022-11-04T02:56:04.208Z,10.23
2022-11-04T02:58:32.897Z,5.15
2022-11-04T03:01:00.008Z,4.13
2022-11-04T03:03:28.370Z,6.35
2022-11-04T03:05:56.660Z,6.93
2022-11-04T03:08:27.177Z,5.72
2022-11-04T03:10:56.598Z,5.65
2022-11-04T03:13:43.331Z,6.22
2022-11-04T03:16:14.376Z,7.95
2022-11-04T03:18:49.843Z,7.05
2022-11-04T03:21:16.697Z,9.57
2022-11-04T03:23:43.711Z,8.63
2022-11-04T03:26:30.205Z,6.60
2022-11-04T03:29:12.089Z,5.95
2022-11-04T03:31:59.059Z,7.20
2022-11-04T03:34:25.533Z,5.93
2022-11-04T03:36:52.209Z,6.70
2022-11-04T03:39:18.682Z,7.25
2022-11-04T03:41:48.864Z,8.77
2022-11-04T03:44:15.350Z,10.93
2022-11-04T03:46:41.998Z,6.90
2022-11-04T03:49:09.273Z,8.05
2022-11-04T03:51:35.770Z,7.15
2022-11-04T03:54:02.335Z,5.82
2022-11-04T03:56:37.898Z,8.60
2022-11-04T03:59:07.449Z,4.53
2022-11-04T04:01:39.561Z,12.57
2022-11-04T04:04:24.886Z,5.55
2022-11-04T04:06:53.865Z,5.70
2022-11-04T04:09:39.017Z,12.05
2022-11-04T04:12:05.526Z,6.35
2022-11-04T04:14:40.145Z,6.35
2022-11-04T04:19:43.022Z,5.15
2022-11-04T04:22:15.834Z,7.20
2022-11-04T04:25:02.984Z,4.68
2022-11-04T04:27:33.714Z,4.28
2022-11-04T04:30:07.940Z,6.10
2022-11-04T04:32:40.376Z,7.43
2022-11-04T04:35:27.142Z,6.15
2022-11-04T04:38:16.782Z,5.53
2022-11-04T04:41:03.729Z,6.68
2022-11-04T04:43:53.553Z,5.63
2022-11-04T04:46:20.045Z,5.32
2022-11-04T04:48:46.459Z,4.20
2022-11-04T04:51:12.962Z,8.00
2022-11-04T04:53:39.537Z,6.30
2022-11-04T04:56:05.956Z,5.85
2022-11-04T04:58:32.406Z,4.80
2022-11-04T05:00:58.895Z,7.20
2022-11-04T05:03:25.442Z,7.53
2022-11-04T05:05:53.760Z,6.18
2022-11-04T05:08:22.769Z,8.25
2022-11-04T05:10:49.152Z,8.15
2022-11-04T05:13:29.494Z,6.25
2022-11-04T05:15:57.110Z,7.80
2022-11-04T05:18:23.542Z,5.97
2022-11-04T05:20:49.951Z,10.35
2022-11-04T05:23:16.430Z,9.38
2022-11-04T05:25:42.932Z,6.75
2022-11-04T05:28:10.478Z,10.30
2022-11-04T05:30:37.617Z,9.13
2022-11-04T05:33:05.355Z,7.68
2022-11-04T05:35:32.403Z,7.25
2022-11-04T05:37:58.883Z,8.65
2022-11-04T05:40:25.616Z,6.65
2022-11-04T05:42:52.094Z,7.30
2022-11-04T05:45:18.600Z,5.43
2022-11-04T05:47:45.037Z,8.32
2022-11-04T05:50:11.543Z,9.73
2022-11-04T05:52:38.062Z,8.80
2022-11-04T05:55:04.676Z,9.52
2022-11-04T05:57:31.152Z,9.25
2022-11-04T05:59:57.603Z,8.15
2022-11-04T06:02:24.130Z,8.90
2022-11-04T06:04:50.693Z,7.93
2022-11-04T06:07:17.093Z,11.90
2022-11-04T06:09:43.605Z,13.20
2022-11-04T06:12:11.563Z,14.07
2022-11-04T06:14:38.233Z,12.07
2022-11-04T06:17:04.743Z,9.35
2022-11-04T06:19:31.244Z,11.70
2022-11-04T06:21:57.926Z,9.07
2022-11-04T06:24:24.431Z,7.55
2022-11-04T06:26:50.897Z,12.57
2022-11-04T06:29:17.484Z,11.38
2022-11-04T06:31:43.941Z,10.30
2022-11-04T06:34:10.403Z,12.18
2022-11-04T06:36:36.944Z,11.60
2022-11-04T06:39:05.219Z,16.63
2022-11-04T06:41:31.881Z,17.83
2022-11-04T06:43:58.352Z,18.02
2022-11-04T06:46:40.367Z,12.45
2022-11-04T06:49:07.898Z,15.05
2022-11-04T06:51:34.380Z,14.98
2022-11-04T06:54:01.388Z,15.00
2022-11-04T06:56:27.878Z,21.25
2022-11-04T06:58:54.561Z,15.75
2022-11-04T07:01:22.680Z,12.82
2022-11-04T07:03:50.557Z,14.95
2022-11-04T07:06:17.225Z,15.60
2022-11-04T07:08:43.656Z,22.38
2022-11-04T07:11:10.211Z,15.90
2022-11-04T07:13:36.765Z,13.05
2022-11-04T07:16:04.866Z,13.50
2022-11-04T07:18:31.296Z,12.48
2022-11-04T07:20:58.618Z,12.10
2022-11-04T07:23:25.166Z,13.48
2022-11-04T07:25:51.643Z,14.20
2022-11-04T07:28:18.065Z,15.65
2022-11-04T07:30:44.528Z,12.15
2022-11-04T07:33:11.074Z,15.30
2022-11-04T07:35:37.570Z,12.95
2022-11-04T07:38:04.248Z,14.90
2022-11-04T07:40:31.236Z,19.15
2022-11-04T07:42:58.762Z,18.98
2022-11-04T07:45:35.167Z,14.90
2022-11-04T07:48:01.655Z,9.75
2022-11-04T07:50:28.150Z,10.65
2022-11-04T07:52:54.706Z,11.98
2022-11-04T07:55:21.488Z,11.02
2022-11-04T07:57:48.139Z,8.82
2022-11-04T08:00:16.336Z,9.98
2022-11-04T08:02:44.647Z,8.75
2022-11-04T08:05:11.990Z,8.32
2022-11-04T08:07:38.464Z,7.80
2022-11-04T08:10:05.490Z,12.02
2022-11-04T08:12:32.356Z,9.60
2022-11-04T08:14:59.345Z,9.50
2022-11-04T08:17:26.563Z,7.75
2022-11-04T08:19:58.392Z,11.40
2022-11-04T08:22:32.790Z,9.82
2022-11-04T08:25:00.224Z,18.20
2022-11-04T08:27:26.884Z,13.05
2022-11-04T08:29:53.481Z,16.02
2022-11-04T08:32:20.299Z,14.85
2022-11-04T08:34:46.867Z,14.20
2022-11-04T08:37:14.016Z,10.60
2022-11-04T08:39:40.670Z,11.77
2022-11-04T08:42:07.781Z,11.73
2022-11-04T08:44:35.698Z,14.13
2022-11-04T08:47:03.955Z,13.27
2022-11-04T08:49:31.056Z,14.60
2022-11-04T08:51:59.796Z,22.10
2022-11-04T08:54:27.077Z,15.50
2022-11-04T08:56:56.761Z,20.08
2022-11-04T08:59:24.970Z,17.33
2022-11-04T09:01:51.516Z,14.00
2022-11-04T09:04:22.426Z,15.55
2022-11-04T09:06:51.168Z,15.82
2022-11-04T09:09:18.062Z,13.05
2022-11-04T09:11:45.099Z,15.02
2022-11-04T09:14:11.749Z,18.50
2022-11-04T09:16:39.323Z,16.42
2022-11-04T09:19:07.125Z,14.60
2022-11-04T09:21:33.798Z,9.80
2022-11-04T09:24:00.298Z,12.45
2022-11-04T09:26:29.205Z,12.18
2022-11-04T09:28:56.453Z,7.65
2022-11-04T09:31:23.817Z,8.88
2022-11-04T09:33:50.706Z,8.27
2022-11-04T09:36:17.889Z,8.40
2022-11-04T09:38:45.176Z,8.43
2022-11-04T09:41:20.206Z,10.90
2022-11-04T09:43:58.341Z,11.77
2022-11-04T09:46:26.774Z,16.20
2022-11-04T09:48:55.228Z,10.07
2022-11-04T09:51:47.949Z,14.07
2022-11-04T09:54:20.917Z,9.13
2022-11-04T09:56:51.811Z,10.55
2022-11-04T09:59:29.744Z,12.40
2022-11-04T10:02:00.038Z,10.82
2022-11-04T10:04:45.714Z,12.75
2022-11-04T10:07:27.638Z,12.10
2022-11-04T10:09:55.862Z,11.00
2022-11-04T10:12:47.703Z,12.75
2022-11-04T10:15:21.082Z,9.82
2022-11-04T10:18:00.572Z,7.50
2022-11-04T10:20:49.407Z,8.70
2022-11-04T10:23:26.048Z,12.82
2022-11-04T10:25:56.714Z,13.20
2022-11-04T10:28:26.338Z,10.55
2022-11-04T10:30:52.903Z,11.02
2022-11-04T10:33:37.535Z,11.82
2022-11-04T10:36:06.207Z,10.27
2022-11-04T10:38:38.780Z,14.40
2022-11-04T10:41:17.769Z,11.55
2022-11-04T10:43:44.550Z,13.40
2022-11-04T10:46:11.143Z,10.15
2022-11-04T10:48:42.804Z,10.40
2022-11-04T10:51:09.332Z,12.25
2022-11-04T10:53:36.827Z,9.32
2022-11-04T10:56:19.716Z,9.40
2022-11-04T10:58:46.808Z,8.57
2022-11-04T11:01:27.208Z,10.73
2022-11-04T11:03:54.379Z,13.18
2022-11-04T11:06:34.345Z,10.75
2022-11-04T11:09:14.356Z,9.63
2022-11-04T11:11:45.249Z,10.30
2022-11-04T11:14:16.182Z,12.02
2022-11-04T11:16:42.675Z,9.52
2022-11-04T11:19:12.002Z,8.98
2022-11-04T11:21:47.905Z,8.32
2022-11-04T11:24:25.858Z,8.48
2022-11-04T11:26:56.696Z,15.75
2022-11-04T11:29:31.379Z,7.25
2022-11-04T11:31:59.148Z,7.45
2022-11-04T11:34:27.594Z,9.85
2022-11-04T11:36:55.299Z,13.25
2022-11-04T11:39:24.134Z,9.73
2022-11-04T11:41:53.450Z,8.45
2022-11-04T11:44:25.379Z,10.15
2022-11-04T11:46:54.682Z,8.80
2022-11-04T11:49:23.613Z,10.93
2022-11-04T11:51:50.790Z,7.40
2022-11-04T11:54:25.066Z,7.97
2022-11-04T12:02:55.810Z,9.95
2022-11-04T12:11:11.308Z,7.85
2022-11-04T12:13:44.189Z,8.30
2022-11-04T12:16:19.757Z,8.05
2022-11-04T12:18:59.382Z,7.63
2022-11-04T12:21:33.911Z,11.85
2022-11-04T12:24:10.353Z,6.22
2022-11-04T12:27:15.488Z,7.35
2022-11-04T12:29:51.571Z,6.88
2022-11-04T12:32:28.255Z,8.02
2022-11-04T12:35:15.751Z,10.07
2022-11-04T12:38:00.901Z,12.10
2022-11-04T12:40:33.377Z,10.70
2022-11-04T12:43:18.973Z,7.85
2022-11-04T12:45:48.475Z,9.00
2022-11-04T12:48:24.038Z,9.20
2022-11-04T12:50:59.424Z,12.13
2022-11-04T12:53:34.215Z,14.25
2022-11-04T12:56:06.476Z,13.02
2022-11-04T12:58:42.126Z,10.05
2022-11-04T13:01:30.300Z,10.25
2022-11-04T13:04:15.727Z,11.20
2022-11-04T13:06:44.658Z,11.20
2022-11-04T13:09:30.069Z,9.00
2022-11-04T13:12:00.827Z,8.38
2022-11-04T13:14:32.218Z,9.07
2022-11-04T13:17:05.200Z,5.22
2022-11-04T13:19:35.526Z,2.67
2022-11-04T13:22:06.039Z,3.75
2022-11-04T13:24:35.464Z,3.58
2022-11-04T13:27:03.829Z,4.45
2022-11-04T13:29:34.401Z,6.07
2022-11-04T13:32:22.354Z,7.15
2022-11-04T13:35:08.989Z,11.73
2022-11-04T13:37:39.687Z,9.32
2022-11-04T13:40:12.794Z,8.98
2022-11-04T13:42:42.313Z,9.23
2022-11-04T13:45:11.128Z,7.60
2022-11-04T13:47:43.964Z,4.47
2022-11-04T13:50:27.434Z,5.20
2022-11-04T13:52:54.003Z,5.95
2022-11-04T13:55:23.548Z,9.35
2022-11-04T13:57:50.082Z,6.35
2022-11-04T14:00:16.518Z,5.85
2022-11-04T14:02:47.517Z,6.22
2022-11-04T14:05:34.609Z,7.20
2022-11-04T14:08:01.144Z,6.78
2022-11-04T14:10:46.697Z,7.07
2022-11-04T14:13:42.417Z,7.00
2022-11-04T14:16:08.916Z,11.05
2022-11-04T14:18:42.076Z,6.80
2022-11-04T14:21:10.810Z,10.20
2022-11-04T14:23:38.698Z,7.43
2022-11-04T14:26:06.813Z,5.65
2022-11-04T14:28:35.050Z,4.55
2022-11-04T14:31:02.709Z,9.50
2022-11-04T14:33:38.267Z,8.25
2022-11-04T14:36:16.197Z,10.30
2022-11-04T14:38:43.003Z,7.47
2022-11-04T14:41:22.688Z,9.05
2022-11-04T14:43:49.376Z,10.45
2022-11-04T14:46:20.161Z,12.40
2022-11-04T14:48:53.121Z,12.13
2022-11-04T14:51:32.356Z,7.18
2022-11-04T14:54:22.218Z,9.50
2022-11-04T14:56:51.283Z,11.27
2022-11-04T14:59:21.878Z,12.93
2022-11-04T15:01:49.362Z,7.70
2022-11-04T15:04:26.981Z,11.45
2022-11-04T15:07:00.673Z,13.15
2022-11-04T15:09:40.315Z,9.77
2022-11-04T15:12:28.630Z,8.18
2022-11-04T15:14:55.661Z,9.75
2022-11-04T15:17:23.432Z,11.13
2022-11-04T15:19:51.887Z,13.00
2022-11-04T15:22:19.056Z,12.50
2022-11-04T15:24:45.702Z,6.75
2022-11-04T15:27:18.117Z,12.65
2022-11-04T15:29:54.479Z,10.95
2022-11-04T15:32:20.997Z,6.93
2022-11-04T15:34:47.672Z,9.77
2022-11-04T15:37:14.317Z,7.60
2022-11-04T15:39:43.518Z,9.02
2022-11-04T15:42:36.007Z,8.20
2022-11-04T15:45:20.027Z,11.23
2022-11-04T15:47:46.539Z,8.48
2022-11-04T15:50:23.342Z,10.52
2022-11-04T15:52:52.044Z,10.57
2022-11-04T15:55:21.001Z,11.90
2022-11-04T15:57:47.631Z,12.55
2022-11-04T16:00:14.097Z,15.15
2022-11-04T16:02:45.869Z,8.63
2022-11-04T16:05:12.431Z,10.77
2022-11-04T16:07:43.256Z,11.95
2022-11-04T16:10:39.917Z,10.43
2022-11-04T16:13:18.317Z,11.73
2022-11-04T16:15:46.688Z,12.48
2022-11-04T16:18:22.569Z,13.65
2022-11-04T16:20:50.463Z,16.08
2022-11-04T16:23:18.394Z,14.05
2022-11-04T16:25:44.926Z,12.00
2022-11-04T16:28:20.973Z,16.10
2022-11-04T16:31:07.652Z,19.05
2022-11-04T16:33:34.157Z,19.70
2022-11-04T16:36:00.619Z,17.05
2022-11-04T16:38:27.086Z,18.75
2022-11-04T16:40:53.578Z,18.95
2022-11-04T16:43:21.111Z,18.23
2022-11-04T16:45:53.502Z,18.88
2022-11-04T16:48:21.224Z,15.10
2022-11-04T16:50:48.936Z,13.10
2022-11-04T16:53:15.491Z,12.80
2022-11-04T16:55:43.043Z,10.05
2022-11-04T16:58:28.326Z,14.38
2022-11-04T17:00:54.957Z,13.35
2022-11-04T17:03:21.831Z,14.73
2022-11-04T17:05:53.809Z,15.18
2022-11-04T17:08:20.319Z,15.40
2022-11-04T17:10:46.824Z,16.63
2022-11-04T17:13:13.377Z,16.80
2022-11-04T17:15:39.930Z,18.23
2022-11-04T17:18:06.791Z,18.05
2022-11-04T17:20:33.394Z,18.02
2022-11-04T17:23:00.057Z,16.15
2022-11-04T17:25:27.732Z,19.73
2022-11-04T17:27:54.854Z,21.45
2022-11-04T17:30:22.507Z,21.75
2022-11-04T17:32:49.343Z,19.27
2022-11-04T17:35:16.618Z,20.95
2022-11-04T17:37:43.172Z,18.80
2022-11-04T17:40:13.626Z,27.08
2022-11-04T17:42:58.880Z,24.35
2022-11-04T17:45:25.390Z,21.65
2022-11-04T17:47:51.997Z,26.08
2022-11-04T17:50:18.554Z,20.88
2022-11-04T17:52:49.114Z,21.48
2022-11-04T17:55:18.123Z,25.88
2022-11-04T17:57:47.362Z,19.58
2022-11-04T18:00:14.540Z,23.40
2022-11-04T18:02:41.547Z,19.95
2022-11-04T18:05:08.538Z,21.35
2022-11-04T18:07:35.657Z,27.67
2022-11-04T18:10:02.186Z,27.85
2022-11-04T18:12:37.842Z,26.10
2022-11-04T18:15:05.361Z,24.27
2022-11-04T18:17:31.962Z,26.60
2022-11-04T18:19:58.806Z,24.17
2022-11-04T18:22:25.396Z,23.30
2022-11-04T18:24:51.959Z,23.90
2022-11-04T18:27:18.564Z,23.05
2022-11-04T18:29:45.076Z,22.42
2022-11-04T18:32:11.651Z,21.00
2022-11-04T18:34:38.131Z,21.35
2022-11-04T18:37:04.688Z,26.90
2022-11-04T18:39:31.202Z,27.15
2022-11-04T18:41:57.698Z,26.50
2022-11-04T18:44:24.193Z,26.17
2022-11-04T18:46:50.833Z,22.40
2022-11-04T18:49:17.757Z,27.73
2022-11-04T18:51:44.547Z,28.70
2022-11-04T18:54:11.537Z,27.55
2022-11-04T18:56:38.019Z,26.42
2022-11-04T18:59:04.519Z,25.00
2022-11-04T19:01:33.975Z,31.98
2022-11-04T19:04:00.636Z,32.90
2022-11-04T19:06:29.425Z,33.78
2022-11-04T19:09:05.121Z,35.00
2022-11-04T19:11:37.040Z,27.95
2022-11-04T19:14:09.253Z,31.40
2022-11-04T19:16:36.479Z,29.58
2022-11-04T19:19:05.104Z,27.92
2022-11-04T19:21:31.865Z,31.50
2022-11-04T19:24:00.009Z,36.28
2022-11-04T19:26:28.122Z,31.63
2022-11-04T19:28:55.557Z,33.40
2022-11-04T19:31:25.126Z,30.42
2022-11-04T19:33:52.028Z,34.22
2022-11-04T19:36:19.861Z,34.67
2022-11-04T19:38:46.409Z,31.02
2022-11-04T19:41:32.567Z,34.20
2022-11-04T19:44:00.476Z,32.22
2022-11-04T19:46:26.996Z,35.13
2022-11-04T19:48:53.581Z,40.28
2022-11-04T19:51:20.168Z,37.25
2022-11-04T19:53:46.902Z,35.53
2022-11-04T19:56:14.797Z,36.85
2022-11-04T19:58:41.909Z,37.63
2022-11-04T20:01:09.188Z,32.47
2022-11-04T20:03:36.092Z,35.00
2022-11-04T20:06:05.728Z,39.95
2022-11-04T20:08:32.905Z,40.33
2022-11-04T20:11:01.907Z,32.35
2022-11-04T20:13:47.286Z,44.83
2022-11-04T20:16:21.059Z,42.45
2022-11-04T20:18:49.248Z,42.95
2022-11-04T20:21:15.734Z,43.95
2022-11-04T20:23:42.230Z,44.03
2022-11-04T20:26:20.404Z,39.25
2022-11-04T20:28:47.576Z,36.78
2022-11-04T20:31:18.179Z,43.58
2022-11-04T20:33:45.259Z,41.95
2022-11-04T20:36:12.406Z,46.38
2022-11-04T20:38:39.069Z,38.13
2022-11-04T20:41:18.609Z,45.38
2022-11-04T20:43:48.827Z,42.70
2022-11-04T20:46:20.561Z,54.78
2022-11-04T20:48:47.721Z,47.25
2022-11-04T20:51:18.225Z,50.45
2022-11-04T20:53:45.672Z,39.78
2022-11-04T20:56:13.299Z,50.45
2022-11-04T20:58:40.741Z,50.05
2022-11-04T21:01:09.230Z,55.42
2022-11-04T21:03:36.185Z,47.80
2022-11-04T21:06:02.702Z,50.80
2022-11-04T21:08:29.226Z,46.90
2022-11-04T21:10:56.380Z,77.18
2022-11-04T21:13:23.100Z,52.67
2022-11-04T21:15:53.145Z,35.08
2022-11-04T21:18:19.661Z,66.30
2022-11-04T21:20:46.515Z,60.70
2022-11-04T21:23:13.855Z,81.15
2022-11-04T21:25:45.151Z,63.67
2022-11-04T21:28:13.415Z,83.28
2022-11-04T21:30:42.370Z,109.78
2022-11-04T21:33:09.184Z,54.55
2022-11-04T21:35:36.051Z,94.97
2022-11-04T21:38:03.542Z,85.28
2022-11-04T21:40:30.121Z,82.93
2022-11-04T21:42:57.991Z,72.45
2022-11-04T21:45:24.862Z,41.47
2022-11-04T21:47:51.400Z,64.07
2022-11-04T21:50:18.385Z,46.75
2022-11-04T21:52:48.028Z,47.35
2022-11-04T21:55:14.494Z,59.45
2022-11-04T21:57:40.970Z,36.88
2022-11-04T22:00:08.475Z,63.67
2022-11-04T22:02:38.798Z,67.15
2022-11-04T22:05:06.170Z,51.17
2022-11-04T22:07:51.081Z,64.28
2022-11-04T22:10:17.699Z,67.95
2022-11-04T22:12:50.024Z,50.33
2022-11-04T22:15:37.329Z,57.92
2022-11-04T22:18:03.931Z,63.17
2022-11-04T22:20:30.542Z,44.58
2022-11-04T22:22:57.084Z,62.53
2022-11-04T22:25:23.850Z,74.38
2022-11-04T22:27:50.758Z,43.38
2022-11-04T22:30:17.483Z,54.95
2022-11-04T22:32:44.139Z,51.05
2022-11-04T22:35:11.137Z,36.63
2022-11-04T22:37:37.693Z,49.60
2022-11-04T22:40:04.377Z,67.82
2022-11-04T22:42:30.894Z,43.95
2022-11-04T22:44:57.339Z,34.75
2022-11-04T22:47:23.804Z,33.63
2022-11-04T22:49:50.312Z,40.92
2022-11-04T22:52:16.780Z,53.83
2022-11-04T22:54:43.299Z,51.92
2022-11-04T22:57:09.765Z,62.25
2022-11-04T22:59:36.250Z,41.38
2022-11-04T23:02:03.385Z,85.53
2022-11-04T23:04:29.920Z,36.95
2022-11-04T23:06:56.477Z,93.20
2022-11-04T23:09:23.740Z,129.10
2022-11-04T23:12:08.982Z,66.05
2022-11-04T23:14:54.131Z,60.70
2022-11-04T23:17:40.301Z,80.03
2022-11-04T23:20:11.595Z,34.03
2022-11-04T23:22:56.792Z,31.63
2022-11-04T23:25:23.506Z,45.65
2022-11-04T23:28:09.643Z,70.43
2022-11-04T23:30:39.772Z,36.47
2022-11-04T23:33:07.598Z,44.83
2022-11-04T23:35:54.288Z,47.63
2022-11-04T23:38:21.087Z,57.47
2022-11-04T23:41:07.365Z,29.65
2022-11-04T23:43:34.221Z,37.28
2022-11-04T23:46:21.895Z,40.75
2022-11-04T23:49:07.192Z,45.08
2022-11-04T23:51:52.530Z,45.40
2022-11-04T23:54:37.692Z,44.72
2022-11-04T23:57:23.462Z,54.00
